METAR / TAF
Helsinki-Vantaa
HELSINKI/VANTAA
Metar
EFHK 211650Z 32007KT 9999 FEW049TCU 19/08 Q1016 TEMPO FEW050CB

16:50 UTC

Wind: 320° 7kt

Visibility: 9999 m

Sky: FEW 4900 ft

Temp: 19 deg C / 66.2 deg F

Dewpoint: 8 deg C / 46.4 deg F

Pressure: 1016 hPa

TAF
TAF EFHK 211426Z 2115/2215 33006KT 9999 FEW046 SCT070 PROB40 TEMPO 2115/2118 FEW045CB PROB30 TEMPO 2200/2204 4000 BR TEMPO 2212/2215 FEW020CB
Helsinki, Malmi
HELSINKI/MALMI
Turku
TURKU/ABO
Metar
EFTU 211650Z AUTO 31009KT 280V350 9999 BKN038/// 17/08 Q1017

16:50 UTC

Wind: 310° 9kt

Visibility: 9999 m

Sky: BKN 3800 ft

Temp: 17 deg C / 62.6 deg F

Dewpoint: 8 deg C / 46.4 deg F

Pressure: 1017 hPa

TAF
TAF EFTU 211426Z 2115/2215 32008KT 9999 FEW048 BKN080 TEMPO 2115/2118 FEW050CB PROB40 2200/2205 3000 MIFG TEMPO 2210/2215 FEW050CB
Tampere, Pirkkala
TAMPERE/PIRKKALA
Metar
EFTP 211650Z AUTO 31004KT 270V360 CAVOK 18/10 Q1017

16:50 UTC

Wind: 310° 4kt

Visibility:

Sky:

Temp: 18 deg C / 64.4 deg F

Dewpoint: 10 deg C / 50 deg F

Pressure: 1017 hPa

TAF
TAF EFTP 211426Z 2115/2215 25007KT 9999 FEW037 TEMPO 2115/2118 BKN040CB PROB30 2201/2204 5000 MIFG TEMPO 2210/2215 TSRA SCT040CB
Maarianhamina
MARIEHAMN/ALAND
Metar
EFMA 211650Z AUTO 01005KT 320V040 9999 FEW046 18/08 Q1018

16:50 UTC

Wind: 10° 5kt

Visibility: 9999 m

Sky: FEW 4600 ft

Temp: 18 deg C / 64.4 deg F

Dewpoint: 8 deg C / 46.4 deg F

Pressure: 1018 hPa

TAF
TAF EFMA 211426Z 2115/2124 19005KT 9999 SCT045
Pori
PORI (MIL/CIV)
Metar
EFPO 211650Z AUTO 30011KT 9999 FEW050/// SCT072/// 15/11 Q1017

16:50 UTC

Wind: 300° 11kt

Visibility: 9999 m

Sky: FEW 5000 ft

Temp: 15 deg C / 59 deg F

Dewpoint: 11 deg C / 51.8 deg F

Pressure: 1017 hPa

TAF
TAF EFPO 211129Z 2112/2116 32011KT 9999 FEW031 TEMPO 2112/2116 SCT040CB
Vaasa
VAASA
Metar
EFVA 211650Z AUTO 36008KT 340V040 9999 FEW020/// 17/12 Q1018

16:50 UTC

Wind: 360° 8kt

Visibility: 9999 m

Sky: FEW 2000 ft

Temp: 17 deg C / 62.6 deg F

Dewpoint: 12 deg C / 53.6 deg F

Pressure: 1018 hPa

TAF
TAF EFVA 211438Z 2115/2215 02010KT 9999 SCT025 TEMPO 2115/2117 SCT025CB
Kruunupyy
KRUUNUPYY
Metar
EFKK 211650Z 35008KT 320V040 9999 VC CB BKN095 16/11 Q1018
TAF
TAF EFKK 211438Z 2115/2123 36007KT 9999 SCT020 TEMPO 2115/2117 SCT020CB
Jyväskylä, Tikkakoski
JYVASKYLA (MIL/C
Metar
EFJY 211650Z AUTO 33004KT 9999 -RA OVC071 12/11 Q1017

16:50 UTC

Wind: 330° 4kt

Visibility: 9999 m

Sky: OVC 7100 ft

Temp: 12 deg C / 53.6 deg F

Dewpoint: 11 deg C / 51.8 deg F

Pressure: 1017 hPa

TAF
TAF EFJY 211426Z 2115/2215 36005KT 9999 -SHRA OVC060 TEMPO 2115/2117 5000 TSRA BKN050CB PROB40 2122/2205 2500 BR BKN003 PROB30 TEMPO 2209/2215 4000 TSRA
Kuopio
KUOPIO (MIL/CIV)
Metar
EFKU 211650Z AUTO VRB02KT CAVOK 15/11 Q1017

16:50 UTC

Wind: ° 2kt

Visibility:

Sky:

Temp: 15 deg C / 59 deg F

Dewpoint: 11 deg C / 51.8 deg F

Pressure: 1017 hPa

TAF
TAF EFKU 211430Z 2115/2215 01005KT 9999 SCT030 TEMPO 2115/2118 -SHRA BKN025CB PROB30 2115/2117 2500 TSRA
Joensuu
JOENSUU
Metar
EFJO 211650Z AUTO 12003KT 9999 -SHRA BKN032 BKN086 17/10 Q1016

16:50 UTC

Wind: 120° 3kt

Visibility: 9999 m

Sky: BKN 3200 ft

Temp: 17 deg C / 62.6 deg F

Dewpoint: 10 deg C / 50 deg F

Pressure: 1016 hPa

TAF
TAF EFJO 211136Z 2112/2116 02006KT 9999 SCT030 TEMPO 2112/2116 SHRA SCT030CB PROB30 2112/2114 6000 TSRA
Halli
HALLI (FIN-AFB)
Metar
EFHA 211650Z AUTO 33003KT 9999 -SHRA FEW054 OVC061 14/14 Q1016

16:50 UTC

Wind: 330° 3kt

Visibility: 9999 m

Sky: FEW 5400 ft

Temp: 14 deg C / 57.2 deg F

Dewpoint: 14 deg C / 57.2 deg F

Pressure: 1016 hPa

TAF
TAF EFHA 211129Z 2112/2114 29006KT 9999 BKN016 TEMPO 2112/2114 SHRA SCT030CB
Utti
UTTI (FIN-AFB)
Metar
EFUT 211650Z AUTO VRB02KT CAVOK 15/12 Q1016

16:50 UTC

Wind: ° 2kt

Visibility:

Sky:

Temp: 15 deg C / 59 deg F

Dewpoint: 12 deg C / 53.6 deg F

Pressure: 1016 hPa

Mikkeli
MIKKELI
Metar
EFMI 211620Z AUTO 02001KT CAVOK 16/11 Q1016

16:20 UTC

Wind: 20° 1kt

Visibility:

Sky:

Temp: 16 deg C / 60.8 deg F

Dewpoint: 11 deg C / 51.8 deg F

Pressure: 1016 hPa

Savonlinna
SAVONLINNA (AUT)
Metar
EFSA 211650Z AUTO 31002KT CAVOK 17/12 Q1016

16:50 UTC

Wind: 310° 2kt

Visibility:

Sky:

Temp: 17 deg C / 62.6 deg F

Dewpoint: 12 deg C / 53.6 deg F

Pressure: 1016 hPa

TAF
TAF EFSA 211430Z 2115/2118 33004KT 9999 BKN030 TEMPO 2115/2118 7000 SHRA SCT030CB PROB30 2115/2118 4000 TSRA
Lappeenranta
LAPPEENRANTA
Metar
EFLP 211650Z AUTO 01004KT 320V070 CAVOK 17/11 Q1016

16:50 UTC

Wind: 10° 4kt

Visibility:

Sky:

Temp: 17 deg C / 62.6 deg F

Dewpoint: 11 deg C / 51.8 deg F

Pressure: 1016 hPa

Oulu
OULU/ULEABORG
Metar
EFOU 211650Z AUTO 06006KT 010V100 9999 BKN037/// BKN043/// 16/08 Q1017

16:50 UTC

Wind: 60° 6kt

Visibility: 9999 m

Sky: BKN 3700 ft

Temp: 16 deg C / 60.8 deg F

Dewpoint: 8 deg C / 46.4 deg F

Pressure: 1017 hPa

TAF
TAF EFOU 211438Z 2115/2215 36008KT 9999 SCT035 BKN060
Kemi
KEMI
Metar
EFKE 211650Z 35004KT 320V030 CAVOK 14/09 Q1019

16:50 UTC

Wind: 350° 4kt

Visibility:

Sky:

Temp: 14 deg C / 57.2 deg F

Dewpoint: 9 deg C / 48.2 deg F

Pressure: 1019 hPa

TAF
TAF EFKE 211438Z 2115/2124 02010KT 9999 SCT030 BKN070
Rovaniemi
ROVANIEMI (CIV/M
Metar
EFRO 211650Z AUTO 07004KT CAVOK 13/06 Q1019

16:50 UTC

Wind: 70° 4kt

Visibility:

Sky:

Temp: 13 deg C / 55.4 deg F

Dewpoint: 6 deg C / 42.8 deg F

Pressure: 1019 hPa

TAF
TAF AMD EFRO 211444Z 2115/2215 03006KT 9999 SCT025 BKN065 PROB40 2205/2211 OVC008
Enontekiö
ENONTEKIO
Metar
EFET 211650Z AUTO 10006KT 040V170 CAVOK 13/06 Q1019

16:50 UTC

Wind: 100° 6kt

Visibility:

Sky:

Temp: 13 deg C / 55.4 deg F

Dewpoint: 6 deg C / 42.8 deg F

Pressure: 1019 hPa

Ivalo
IVALO
Metar
EFIV 211650Z AUTO 03007KT 9999 OVC024 11/06 Q1020

16:50 UTC

Wind: 30° 7kt

Visibility: 9999 m

Sky: OVC 2400 ft

Temp: 11 deg C / 51.8 deg F

Dewpoint: 6 deg C / 42.8 deg F

Pressure: 1020 hPa

TAF
TAF EFIV 211125Z 2112/2116 36005KT 9999 BKN020
Kittilä
KITTILA
Metar
EFKT 211620Z 01005KT 9999 BKN032 11/05 Q1020

16:20 UTC

Wind: 10° 5kt

Visibility: 9999 m

Sky: BKN 3200 ft

Temp: 11 deg C / 51.8 deg F

Dewpoint: 5 deg C / 41 deg F

Pressure: 1020 hPa

TAF
TAF EFKT 211438Z 2115/2118 36005KT 9999 BKN025
Kuusamo
KUUSAMO
Metar
EFKS 211650Z AUTO 35003KT 9999 OVC045 12/07 Q1018

16:50 UTC

Wind: 350° 3kt

Visibility: 9999 m

Sky: OVC 4500 ft

Temp: 12 deg C / 53.6 deg F

Dewpoint: 7 deg C / 44.6 deg F

Pressure: 1018 hPa

TAF
TAF EFKS 210828Z 2109/2113 36006KT 9999 BKN025
Kajaani
KAJAANI
Metar
EFKI 211650Z AUTO 04005KT CAVOK 16/07 Q1017

16:50 UTC

Wind: 40° 5kt

Visibility:

Sky:

Temp: 16 deg C / 60.8 deg F

Dewpoint: 7 deg C / 44.6 deg F

Pressure: 1017 hPa

Varkaus
VARKAUS
Seinäjoki
SEINAJOKI-ILMAJO
Metar
EFSI 211650Z AUTO 35003KT CAVOK 16/10 Q1017

16:50 UTC

Wind: 350° 3kt

Visibility:

Sky:

Temp: 16 deg C / 60.8 deg F

Dewpoint: 10 deg C / 50 deg F

Pressure: 1017 hPa